Time;durP1;ratioP1;P1;durP2;ratioP2;P2;SDS_P1;SDS_P2;PMS_P1;PMS_P2;Temp;Humidity;BMP_temperature;BMP_pressure;BME280_temperature;BME280_humidity;BME280_pressure;Samples;Min_cycle;Max_cycle;Signal;HPM_P1;HPM_P2
2022/12/23 00:01:02;;;;;;;59.75;25.60;;;;;;;6.80;66.93;100704.06;5053035;28;20029;-79
2022/12/23 00:03:29;;;;;;;58.20;25.70;;;;;;;6.76;66.90;100707.06;5053247;28;20117;-77
2022/12/23 00:05:55;;;;;;;51.33;27.92;;;;;;;6.77;66.78;100706.09;5053358;28;20029;-78
2022/12/23 00:08:21;;;;;;;67.60;29.13;;;;;;;6.72;67.36;100697.50;5053107;28;20038;-76
2022/12/23 00:10:48;;;;;;;52.08;28.73;;;;;;;6.49;67.30;100667.78;5053074;28;20029;-78
2022/12/23 00:16:11;;;;;;;82.50;33.55;;;;;;;6.42;67.24;100671.78;5053206;28;20060;-77
2022/12/23 00:18:37;;;;;;;69.10;32.88;;;;;;;6.61;67.42;100708.88;5052740;28;20025;-77
2022/12/23 00:21:05;;;;;;;70.65;35.00;;;;;;;6.56;67.62;100698.50;5053386;28;20040;-78
2022/12/23 00:23:32;;;;;;;59.33;32.38;;;;;;;6.64;67.67;100703.34;5063582;28;20056;-77
2022/12/23 00:25:58;;;;;;;83.10;37.75;;;;;;;6.56;67.89;100701.16;5063666;28;20021;-78
2022/12/23 00:28:25;;;;;;;74.63;34.67;;;;;;;6.55;68.37;100703.91;5054433;28;20033;-78
2022/12/23 00:31:04;;;;;;;87.88;33.72;;;;;;;6.54;68.30;100708.41;5052806;28;20032;-77
2022/12/23 00:33:34;;;;;;;65.68;35.20;;;;;;;6.40;68.76;100695.06;5052574;28;20503;-77
2022/12/23 00:36:00;;;;;;;78.07;35.33;;;;;;;6.51;68.75;100707.75;5051954;28;20025;-76
2022/12/23 00:44:01;;;;;;;58.85;32.88;;;;;;;6.51;68.64;100692.56;5052456;28;20125;-77
2022/12/23 00:46:26;;;;;;;77.65;33.38;;;;;;;6.39;67.88;100661.28;5052840;28;20025;-77
2022/12/23 00:51:36;;;;;;;66.80;32.03;;;;;;;6.52;68.20;100678.25;5052126;28;20048;-77
2022/12/23 00:54:02;;;;;;;55.22;28.80;;;;;;;6.21;68.14;100638.41;5052764;28;20041;-77
2022/12/23 00:56:28;;;;;;;64.55;30.83;;;;;;;6.44;68.06;100674.38;5052388;28;20046;-77
2022/12/23 00:58:53;;;;;;;72.88;37.63;;;;;;;6.44;68.07;100675.22;5053178;28;20107;-78
2022/12/23 01:06:46;;;;;;;67.22;32.75;;;;;;;6.38;68.00;100670.28;5054657;28;20114;-77
2022/12/23 01:09:12;;;;;;;64.93;33.05;;;;;;;6.12;68.20;100625.66;5053245;28;20559;-79
2022/12/23 01:11:37;;;;;;;75.90;35.22;;;;;;;6.32;68.10;100659.97;5052522;28;20033;-76
2022/12/23 01:14:03;;;;;;;53.13;29.20;;;;;;;6.37;68.16;100660.53;5052326;28;20021;-77
2022/12/23 01:16:29;;;;;;;66.35;28.73;;;;;;;6.36;67.97;100668.66;5050963;28;20024;-77
2022/12/23 01:18:54;;;;;;;58.78;27.45;;;;;;;6.33;68.25;100634.97;5053116;28;20021;-76
2022/12/23 01:21:19;;;;;;;46.75;26.23;;;;;;;6.44;67.98;100656.53;5052739;28;20033;-78
2022/12/23 01:23:45;;;;;;;53.20;28.90;;;;;;;6.30;67.81;100637.84;5053356;28;20041;-77
2022/12/23 01:26:11;;;;;;;56.25;30.08;;;;;;;6.35;67.81;100627.75;5061523;28;20033;-76
2022/12/23 01:28:36;;;;;;;61.50;28.48;;;;;;;6.38;67.33;100632.03;5059210;28;20048;-77
2022/12/23 01:31:04;;;;;;;52.72;28.05;;;;;;;6.36;66.85;100629.44;5052520;28;20033;-76
2022/12/23 01:33:31;;;;;;;51.15;27.52;;;;;;;6.04;67.56;100630.63;5052126;28;20044;-78
2022/12/23 01:36:04;;;;;;;50.85;27.90;;;;;;;5.85;67.94;100611.34;5051949;28;20025;-78
2022/12/23 01:38:30;;;;;;;60.25;25.60;;;;;;;5.63;68.83;100626.94;5053333;28;20048;-77
2022/12/23 01:40:55;;;;;;;62.97;26.60;;;;;;;5.17;69.55;100587.06;5033318;28;20037;-77
2022/12/23 01:43:21;;;;;;;46.03;26.70;;;;;;;5.42;70.13;100619.31;5052460;28;20028;-77
2022/12/23 01:45:47;;;;;;;53.15;28.27;;;;;;;5.39;70.56;100608.81;5052373;28;20032;-77
2022/12/23 01:48:19;;;;;;;57.60;31.30;;;;;;;5.33;70.12;100577.19;5052165;28;20029;-77
2022/12/23 01:50:54;;;;;;;60.30;32.17;;;;;;;5.57;70.16;100608.63;5051185;28;20067;-76
2022/12/23 01:53:28;;;;;;;71.30;34.33;;;;;;;5.66;70.14;100622.28;5054689;28;20271;-77
2022/12/23 01:55:55;;;;;;;64.88;32.42;;;;;;;5.73;70.27;100622.75;5063277;28;20171;-78
2022/12/23 01:58:30;;;;;;;60.90;31.25;;;;;;;5.73;69.91;100612.09;5059135;28;20032;-77
2022/12/23 02:03:43;;;;;;;66.53;32.22;;;;;;;5.79;69.77;100617.06;5069270;28;20056;-78
2022/12/23 02:11:57;;;;;;;59.90;30.55;;;;;;;5.82;69.44;100606.19;5047839;28;20138;-77
2022/12/23 02:17:35;;;;;;;78.25;39.70;;;;;;;5.78;69.53;100610.84;5048961;28;20063;-78
2022/12/23 02:20:17;;;;;;;72.53;38.70;;;;;;;5.74;69.67;100601.34;5048905;28;20395;-78
2022/12/23 02:23:12;;;;;;;83.78;39.17;;;;;;;5.80;69.28;100605.44;5048987;28;20661;-77
2022/12/23 02:26:01;;;;;;;73.88;37.40;;;;;;;5.71;69.42;100608.66;5049195;28;20072;-77
2022/12/23 02:28:42;;;;;;;86.32;37.92;;;;;;;5.77;69.64;100606.50;5051256;28;20518;-77
2022/12/23 02:31:21;;;;;;;80.50;40.08;;;;;;;5.77;69.54;100608.28;5053974;28;20135;-77
2022/12/23 02:34:11;;;;;;;75.35;36.83;;;;;;;5.89;69.54;100602.22;5049437;28;20381;-78
2022/12/23 02:36:53;;;;;;;70.88;38.80;;;;;;;5.89;69.03;100603.09;5048094;28;20033;-78
2022/12/23 02:39:54;;;;;;;63.58;35.55;;;;;;;5.87;68.94;100604.13;5047907;28;20033;-76
2022/12/23 02:42:25;;;;;;;61.20;35.22;;;;;;;5.89;68.85;100607.56;4988650;28;20026;-76
2022/12/23 02:45:12;;;;;;;77.95;37.00;;;;;;;5.91;68.89;100605.66;4988959;28;20034;-76
2022/12/23 02:47:48;;;;;;;71.22;37.17;;;;;;;5.68;68.67;100564.38;4989022;28;20059;-76
2022/12/23 02:50:19;;;;;;;81.05;37.78;;;;;;;5.84;68.28;100596.28;4989088;28;20093;-77
2022/12/23 02:52:46;;;;;;;77.72;36.50;;;;;;;5.71;68.79;100601.53;4988926;28;20038;-77
2022/12/23 02:55:18;;;;;;;72.07;36.72;;;;;;;5.76;68.97;100601.22;4988687;28;20031;-77
2022/12/23 02:57:46;;;;;;;84.38;37.90;;;;;;;5.86;68.64;100602.41;4972835;28;20042;-76
2022/12/23 03:00:14;;;;;;;75.65;37.58;;;;;;;5.85;68.60;100595.31;4989316;28;20505;-78
2022/12/23 03:02:40;;;;;;;82.65;38.75;;;;;;;5.86;68.12;100584.59;4988254;28;20121;-77
2022/12/23 03:05:26;;;;;;;90.57;40.25;;;;;;;5.86;68.38;100589.06;4989298;28;20031;-76
2022/12/23 03:07:55;;;;;;;86.60;40.78;;;;;;;5.82;68.36;100595.50;4973147;28;20529;-79
2022/12/23 03:10:27;;;;;;;80.70;41.90;;;;;;;5.88;68.52;100584.47;4988198;28;20034;-77
2022/12/23 03:12:59;;;;;;;83.05;40.72;;;;;;;5.88;68.22;100584.47;4988869;28;20050;-77
2022/12/23 03:16:02;;;;;;;79.38;41.95;;;;;;;5.78;68.20;100588.66;4988891;28;20035;-76
2022/12/23 03:18:37;;;;;;;77.82;42.78;;;;;;;5.58;68.71;100581.03;4939329;28;20042;-78
2022/12/23 03:21:09;;;;;;;79.28;41.58;;;;;;;5.46;69.10;100586.16;4969056;28;20066;-77
2022/12/23 03:23:41;;;;;;;76.57;40.20;;;;;;;5.61;68.93;100591.50;4968939;28;20043;-77
2022/12/23 03:26:21;;;;;;;90.10;45.05;;;;;;;5.24;69.22;100537.75;4969372;28;20035;-77
2022/12/23 03:28:54;;;;;;;92.10;43.80;;;;;;;5.39;69.23;100560.81;4969325;28;20443;-77
2022/12/23 03:31:28;;;;;;;92.95;46.50;;;;;;;5.69;68.98;100589.25;4977544;28;20045;-77
2022/12/23 03:34:02;;;;;;;107.90;49.20;;;;;;;5.68;68.83;100582.19;4974799;28;20494;-75
2022/12/23 03:36:33;;;;;;;105.50;50.97;;;;;;;5.74;68.90;100584.47;4955649;28;20027;-76
2022/12/23 03:39:03;;;;;;;117.95;51.55;;;;;;;5.31;68.84;100541.78;4971693;28;20453;-78
2022/12/23 03:41:38;;;;;;;90.35;53.33;;;;;;;5.61;68.99;100581.69;4970153;28;20070;-77
2022/12/23 03:44:15;;;;;;;109.95;54.05;;;;;;;5.68;68.99;100576.84;4969234;28;20118;-77
2022/12/23 03:46:46;;;;;;;99.22;51.83;;;;;;;5.66;68.62;100576.91;4969103;28;20494;-75
2022/12/23 03:49:18;;;;;;;107.13;54.25;;;;;;;5.75;68.69;100578.19;4969577;28;20050;-77
2022/12/23 03:51:58;;;;;;;111.72;54.17;;;;;;;5.78;68.62;100583.34;4969184;28;20034;-77
2022/12/23 03:54:31;;;;;;;93.47;51.47;;;;;;;5.68;68.33;100580.38;4995154;28;20056;-77
2022/12/23 03:57:02;;;;;;;89.80;46.88;;;;;;;5.66;67.86;100568.06;5050213;28;20020;-78
2022/12/23 03:59:31;;;;;;;91.28;45.45;;;;;;;5.62;68.03;100564.75;5049213;28;20110;-76
2022/12/23 04:02:02;;;;;;;91.40;46.13;;;;;;;5.56;68.24;100567.78;5050004;28;20104;-77
2022/12/23 04:04:45;;;;;;;86.20;46.88;;;;;;;5.50;68.17;100579.69;5050226;28;20485;-77
2022/12/23 04:07:22;;;;;;;83.55;43.47;;;;;;;5.00;68.86;100533.03;5050713;28;20056;-78
2022/12/23 04:09:51;;;;;;;97.13;48.60;;;;;;;5.12;69.51;100556.28;5050340;28;20025;-77
2022/12/23 04:12:17;;;;;;;94.38;45.67;;;;;;;5.20;69.77;100570.88;5053839;28;20103;-78
2022/12/23 04:14:47;;;;;;;86.22;45.22;;;;;;;5.39;69.92;100582.16;5053452;28;20020;-78
2022/12/23 04:17:13;;;;;;;91.80;45.42;;;;;;;5.41;69.75;100585.56;5053744;28;20110;-78
2022/12/23 04:19:39;;;;;;;110.97;47.97;;;;;;;5.40;69.73;100583.88;5053515;28;20033;-79
2022/12/23 04:22:04;;;;;;;83.68;44.75;;;;;;;5.41;69.12;100587.41;5054096;28;20025;-78
2022/12/23 04:24:30;;;;;;;87.93;45.90;;;;;;;5.02;69.47;100571.09;5054017;28;20051;-78
2022/12/23 04:26:55;;;;;;;106.60;48.65;;;;;;;5.22;69.79;100592.13;5053736;28;20053;-78
2022/12/23 04:29:21;;;;;;;93.88;47.53;;;;;;;5.08;69.50;100554.75;5053186;28;20020;-77
2022/12/23 04:31:46;;;;;;;80.40;46.50;;;;;;;5.38;69.64;100601.75;5053421;28;20045;-78
2022/12/23 04:34:11;;;;;;;93.45;48.90;;;;;;;5.44;69.64;100596.06;5052875;28;20503;-77
2022/12/23 04:36:37;;;;;;;114.55;55.75;;;;;;;5.58;69.19;100599.69;5053439;28;20025;-77
2022/12/23 04:39:05;;;;;;;99.57;52.05;;;;;;;5.38;68.72;100559.09;5053187;28;20048;-77
2022/12/23 04:41:30;;;;;;;111.60;51.67;;;;;;;5.65;68.64;100609.91;5052413;28;20028;-79
2022/12/23 04:43:56;;;;;;;114.10;54.40;;;;;;;5.58;68.42;100600.56;5053853;28;20028;-78
2022/12/23 04:46:21;;;;;;;109.95;56.65;;;;;;;5.69;67.97;100610.59;5052101;28;20029;-78
2022/12/23 04:48:47;;;;;;;96.43;52.38;;;;;;;5.47;68.17;100605.69;5054125;28;20051;-77
2022/12/23 04:51:12;;;;;;;110.30;55.50;;;;;;;5.28;68.81;100603.28;5052601;28;20103;-78
2022/12/23 04:53:38;;;;;;;121.53;60.15;;;;;;;5.17;69.34;100600.38;5052774;28;20100;-77
2022/12/23 04:56:03;;;;;;;111.13;59.90;;;;;;;5.25;69.82;100606.13;5052105;28;20158;-77
2022/12/23 04:58:29;;;;;;;105.05;56.10;;;;;;;5.34;69.64;100605.59;5050786;28;20393;-80
2022/12/23 05:01:20;;;;;;;113.35;56.97;;;;;;;5.37;69.61;100605.41;5052116;28;20036;-79
2022/12/23 05:03:46;;;;;;;99.22;53.25;;;;;;;5.42;69.18;100603.28;5029493;28;20033;-78
2022/12/23 05:06:11;;;;;;;95.47;50.13;;;;;;;5.38;69.28;100604.41;5029665;28;20539;-78
2022/12/23 05:08:37;;;;;;;94.72;51.20;;;;;;;5.41;69.36;100601.56;5029894;28;20048;-76
2022/12/23 05:11:02;;;;;;;87.95;47.28;;;;;;;5.43;69.02;100610.34;5029496;28;20144;-78
2022/12/23 05:13:28;;;;;;;80.95;43.03;;;;;;;5.47;68.89;100611.03;5029404;28;20033;-79
2022/12/23 05:15:53;;;;;;;76.22;41.92;;;;;;;5.45;68.67;100605.78;5029528;28;20497;-79
2022/12/23 05:18:20;;;;;;;78.32;39.60;;;;;;;5.46;68.61;100612.84;5029146;28;20060;-79
2022/12/23 05:20:46;;;;;;;67.60;36.13;;;;;;;5.45;68.48;100608.44;5029207;28;20412;-78
2022/12/23 05:23:11;;;;;;;95.35;39.90;;;;;;;5.54;68.34;100606.16;5029036;28;20181;-77
2022/12/23 05:25:38;;;;;;;74.93;35.97;;;;;;;5.57;68.03;100611.31;5029229;28;20033;-76
2022/12/23 05:28:04;;;;;;;71.13;38.10;;;;;;;5.59;67.88;100609.44;5029136;28;20164;-77
2022/12/23 05:30:30;;;;;;;84.00;37.70;;;;;;;5.63;67.77;100606.47;5028962;28;20403;-76
2022/12/23 05:32:56;;;;;;;90.65;37.83;;;;;;;5.69;67.60;100605.25;4980127;28;20033;-76
2022/12/23 05:35:25;;;;;;;115.03;40.45;;;;;;;5.74;67.03;100603.16;5029724;28;20063;-77
2022/12/23 05:37:51;;;;;;;90.25;36.60;;;;;;;5.67;67.03;100588.47;5039182;28;20089;-75
2022/12/23 05:40:16;;;;;;;77.50;31.10;;;;;;;5.81;67.29;100599.16;5048907;28;20556;-77
2022/12/23 05:42:42;;;;;;;101.75;32.25;;;;;;;5.60;67.16;100563.09;5052142;28;20064;-77
2022/12/23 05:45:08;;;;;;;78.47;29.65;;;;;;;5.87;67.10;100599.63;5051087;28;20056;-80
2022/12/23 05:47:33;;;;;;;63.00;28.42;;;;;;;5.79;67.41;100579.69;5050788;28;20064;-80
2022/12/23 05:49:59;;;;;;;73.30;30.40;;;;;;;5.96;67.33;100591.06;5051282;28;20048;-78
2022/12/23 05:52:24;;;;;;;104.40;29.85;;;;;;;6.12;67.05;100598.09;5050638;28;20029;-81
2022/12/23 05:54:50;;;;;;;90.80;32.58;;;;;;;6.21;67.02;100598.38;5051099;28;20021;-82
2022/12/23 05:57:15;;;;;;;66.28;26.35;;;;;;;6.33;66.55;100608.25;5050683;28;20021;-78
2022/12/23 05:59:41;;;;;;;78.90;30.33;;;;;;;6.37;66.56;100612.47;5050799;28;20082;-81
2022/12/23 06:02:06;;;;;;;60.22;27.85;;;;;;;6.39;65.85;100612.38;5031560;28;20059;-76
2022/12/23 06:04:32;;;;;;;92.38;47.30;;;;;;;6.45;65.89;100604.78;5050546;28;20048;-77
2022/12/23 06:06:57;;;;;;;91.78;41.85;;;;;;;6.58;65.68;100602.19;5050589;28;20041;-77
2022/12/23 06:09:23;;;;;;;84.88;43.72;;;;;;;6.70;65.52;100609.41;5050228;28;20036;-78
2022/12/23 06:11:48;;;;;;;111.90;43.22;;;;;;;6.70;64.99;100600.53;5050204;28;20116;-77
2022/12/23 06:14:14;;;;;;;163.70;52.53;;;;;;;6.82;65.10;100613.09;5049928;28;20539;-78
2022/12/23 06:16:39;;;;;;;95.80;41.97;;;;;;;6.56;64.76;100554.22;5050614;28;20021;-77
2022/12/23 06:19:04;;;;;;;112.57;43.92;;;;;;;6.91;64.70;100610.66;5050023;28;20028;-76
2022/12/23 06:21:30;;;;;;;110.75;43.97;;;;;;;6.94;64.67;100590.91;5050110;28;20021;-77
2022/12/23 06:23:56;;;;;;;93.72;44.28;;;;;;;7.12;64.04;100613.72;5049759;28;20025;-76
2022/12/23 06:26:22;;;;;;;85.05;41.78;;;;;;;7.07;63.45;100605.13;5048054;28;20086;-75
2022/12/23 06:28:47;;;;;;;93.55;40.35;;;;;;;6.77;64.35;100553.72;5050455;28;20472;-78
2022/12/23 06:31:12;;;;;;;94.75;38.90;;;;;;;7.19;63.86;100620.34;5048645;28;20032;-76
2022/12/23 06:33:38;;;;;;;95.30;44.47;;;;;;;6.70;64.07;100520.34;5049193;28;20385;-76
2022/12/23 06:36:04;;;;;;;114.65;49.85;;;;;;;7.09;63.84;100593.38;5048854;28;20461;-75
2022/12/23 06:38:29;;;;;;;114.50;51.72;;;;;;;7.41;63.89;100623.31;5048709;28;20059;-75
2022/12/23 06:40:55;;;;;;;129.05;55.72;;;;;;;7.49;63.83;100623.63;5056166;28;20127;-74
2022/12/23 06:43:20;;;;;;;122.50;56.53;;;;;;;7.50;63.30;100629.84;5053956;28;20100;-74
2022/12/23 06:45:49;;;;;;;116.03;56.85;;;;;;;7.25;63.91;100590.53;5049097;28;20037;-75
2022/12/23 06:48:15;;;;;;;138.73;57.42;;;;;;;7.25;63.62;100598.53;5048586;28;20503;-75
2022/12/23 06:50:40;;;;;;;145.27;59.78;;;;;;;7.33;63.88;100632.81;5048906;28;20500;-75
2022/12/23 06:53:06;;;;;;;124.55;62.22;;;;;;;7.33;63.66;100630.13;5048244;28;20458;-75
2022/12/23 06:55:32;;;;;;;128.60;59.22;;;;;;;7.39;63.65;100627.91;5047289;28;20032;-76
2022/12/23 07:18:08;;;;;;;165.18;68.68;;;;;;;7.43;64.84;100621.38;5047817;28;20048;-76
2022/12/23 07:20:33;;;;;;;160.85;69.40;;;;;;;7.59;64.82;100616.69;5048379;28;20029;-76
2022/12/23 07:22:59;;;;;;;154.60;72.45;;;;;;;7.72;64.62;100611.34;5048380;28;20028;-75
2022/12/23 07:25:25;;;;;;;179.32;69.78;;;;;;;7.86;64.11;100613.06;5048168;28;20104;-76
2022/12/23 07:27:54;;;;;;;160.68;69.13;;;;;;;8.00;64.13;100603.09;5048021;28;20060;-76
2022/12/23 07:30:20;;;;;;;144.35;66.93;;;;;;;8.12;63.86;100599.53;5048170;28;20043;-76
2022/12/23 07:32:49;;;;;;;153.55;66.55;;;;;;;8.32;63.50;100602.63;5049120;28;20029;-76
2022/12/23 07:35:15;;;;;;;155.57;66.93;;;;;;;8.48;62.97;100606.75;5048993;28;20091;-77
2022/12/23 07:37:41;;;;;;;152.52;67.45;;;;;;;8.65;63.00;100611.72;5049121;28;20021;-75
2022/12/23 07:40:07;;;;;;;159.23;72.78;;;;;;;8.73;62.73;100619.22;5050943;28;20552;-76
2022/12/23 07:42:33;;;;;;;161.05;68.13;;;;;;;8.85;62.56;100620.13;5052141;28;20024;-75
2022/12/23 07:44:58;;;;;;;162.32;69.05;;;;;;;8.89;62.41;100618.94;5052752;28;20103;-74
2022/12/23 07:47:24;;;;;;;130.82;64.43;;;;;;;8.91;62.12;100622.34;5050938;28;20028;-77
2022/12/23 07:49:49;;;;;;;179.38;73.65;;;;;;;9.00;62.09;100616.28;5053883;28;20072;-76
2022/12/23 07:52:15;;;;;;;182.40;80.57;;;;;;;9.08;61.61;100609.38;5053192;28;20033;-76
2022/12/23 07:54:41;;;;;;;179.50;82.97;;;;;;;9.11;61.40;100611.00;5054042;28;20100;-76
2022/12/23 07:57:06;;;;;;;180.18;89.00;;;;;;;8.96;61.41;100582.66;5053335;28;20450;-76
2022/12/23 07:59:32;;;;;;;164.02;79.25;;;;;;;9.19;61.21;100611.25;5054041;28;20056;-76
2022/12/23 08:01:57;;;;;;;179.23;86.68;;;;;;;9.27;61.54;100619.56;5057602;28;20025;-75
2022/12/23 08:04:22;;;;;;;160.70;76.55;;;;;;;9.09;61.40;100620.97;5057095;28;20029;-76
2022/12/23 08:06:48;;;;;;;158.27;67.85;;;;;;;9.06;61.95;100616.69;5056897;28;20140;-76
2022/12/23 08:09:13;;;;;;;140.13;63.85;;;;;;;9.08;61.95;100604.00;5051172;28;20484;-76
2022/12/23 08:11:39;;;;;;;126.93;64.25;;;;;;;9.22;62.02;100611.03;5053063;28;20035;-75
2022/12/23 08:14:04;;;;;;;140.77;63.22;;;;;;;9.41;61.98;100607.78;5052476;28;20098;-75
2022/12/23 08:16:30;;;;;;;135.02;65.75;;;;;;;9.48;61.55;100601.81;5052749;28;20454;-76
2022/12/23 08:18:55;;;;;;;138.68;66.57;;;;;;;9.57;61.53;100601.09;5052223;28;20044;-76
2022/12/23 08:21:21;;;;;;;194.80;71.10;;;;;;;9.75;61.19;100582.72;5052489;28;20021;-76
2022/12/23 08:23:47;;;;;;;138.32;67.15;;;;;;;10.02;60.96;100595.78;5052454;28;20025;-77
2022/12/23 08:26:23;;;;;;;150.90;73.60;;;;;;;10.17;60.13;100590.09;5052841;28;20373;-76
2022/12/23 08:28:52;;;;;;;138.07;68.75;;;;;;;10.28;59.97;100592.75;5050722;28;20748;-77
2022/12/23 08:31:30;;;;;;;161.43;71.68;;;;;;;10.31;59.85;100594.34;5052419;28;20032;-77
2022/12/23 08:33:57;;;;;;;149.02;70.43;;;;;;;10.33;59.78;100584.34;5050992;28;20135;-78
2022/12/23 08:36:41;;;;;;;156.70;83.05;;;;;;;10.18;59.59;100545.25;5052441;28;20068;-77
2022/12/23 08:39:10;;;;;;;142.63;74.10;;;;;;;10.31;59.61;100584.44;5052400;28;20104;-77
2022/12/23 08:41:39;;;;;;;147.88;73.72;;;;;;;10.34;59.63;100586.03;5053075;28;20123;-78
2022/12/23 08:44:05;;;;;;;161.00;69.80;;;;;;;10.45;59.67;100577.09;5055670;28;20071;-80
2022/12/23 08:46:30;;;;;;;134.90;66.82;;;;;;;10.42;59.22;100577.34;5057504;28;20021;-76
2022/12/23 08:48:56;;;;;;;142.35;70.60;;;;;;;10.34;59.18;100570.75;5054851;28;20397;-76
2022/12/23 08:51:24;;;;;;;131.77;67.55;;;;;;;10.38;59.27;100569.53;5053084;28;20428;-77
2022/12/23 08:53:49;;;;;;;126.35;69.15;;;;;;;10.33;59.42;100539.50;5052460;28;20380;-77
2022/12/23 08:56:21;;;;;;;139.20;66.07;;;;;;;10.42;59.92;100567.47;5052555;28;20036;-77
2022/12/23 08:58:49;;;;;;;157.37;65.23;;;;;;;10.62;59.10;100557.72;5051582;28;20028;-77
2022/12/23 09:01:17;;;;;;;111.78;61.03;;;;;;;10.68;59.44;100547.31;5052754;28;20029;-76
2022/12/23 09:03:43;;;;;;;136.63;60.25;;;;;;;10.81;58.89;100542.63;5052557;28;20025;-77
2022/12/23 09:06:11;;;;;;;117.40;58.75;;;;;;;10.90;58.36;100558.00;5051998;28;20106;-77
2022/12/23 09:08:38;;;;;;;114.63;57.47;;;;;;;10.97;58.17;100546.72;5051785;28;20109;-78
2022/12/23 09:11:03;;;;;;;108.18;54.13;;;;;;;11.05;58.02;100541.53;5051616;28;20032;-77
2022/12/23 09:13:29;;;;;;;112.53;50.97;;;;;;;11.25;57.40;100540.72;5051894;28;20025;-77
2022/12/23 09:15:55;;;;;;;112.63;52.08;;;;;;;11.35;57.07;100530.84;5051263;28;20086;-76
2022/12/23 09:18:20;;;;;;;113.55;50.22;;;;;;;11.54;56.60;100533.66;5051385;28;20032;-77
2022/12/23 09:20:46;;;;;;;93.80;45.85;;;;;;;11.62;56.45;100511.47;5051388;28;20033;-77
2022/12/23 09:23:11;;;;;;;118.55;51.10;;;;;;;11.85;55.79;100524.63;5051559;28;20583;-76
2022/12/23 09:25:37;;;;;;;106.60;49.33;;;;;;;11.79;55.66;100492.84;5051526;28;20094;-78
2022/12/23 09:28:04;;;;;;;113.43;50.47;;;;;;;12.06;54.81;100518.31;5050093;28;20029;-76
2022/12/23 09:30:30;;;;;;;140.20;54.95;;;;;;;12.17;54.74;100513.66;5050944;28;20064;-77
2022/12/23 09:32:55;;;;;;;102.45;46.83;;;;;;;12.28;54.38;100502.78;5051309;28;20052;-77
2022/12/23 09:35:21;;;;;;;104.43;46.90;;;;;;;12.40;54.04;100498.13;5051357;28;20041;-77
2022/12/23 09:37:46;;;;;;;104.88;44.88;;;;;;;12.55;52.90;100507.50;5051134;28;20021;-77
2022/12/23 09:40:14;;;;;;;105.07;46.05;;;;;;;12.75;52.59;100503.81;5051288;28;20096;-77
2022/12/23 09:42:45;;;;;;;96.50;47.40;;;;;;;12.84;51.97;100508.38;5051427;28;20033;-77
2022/12/23 09:45:22;;;;;;;118.55;54.25;;;;;;;12.83;52.47;100503.13;5069701;28;20037;-76
2022/12/23 09:47:49;;;;;;;133.85;65.85;;;;;;;12.87;52.42;100497.28;5060558;28;20029;-76
2022/12/23 09:50:27;;;;;;;138.05;64.90;;;;;;;12.97;52.83;100508.94;5056834;28;20057;-77
2022/12/23 09:52:55;;;;;;;136.05;66.20;;;;;;;12.82;52.83;100472.56;5051200;28;20032;-76
2022/12/23 09:55:25;;;;;;;149.63;69.63;;;;;;;12.98;52.84;100507.97;5051309;28;20059;-77
2022/12/23 09:58:02;;;;;;;133.20;62.80;;;;;;;12.95;52.69;100505.53;5051029;28;20025;-76
2022/12/23 10:00:42;;;;;;;116.85;56.03;;;;;;;12.88;53.06;100509.78;5050868;28;20051;-77
2022/12/23 10:03:21;;;;;;;137.23;58.95;;;;;;;12.81;53.08;100508.66;5050654;28;20491;-77
2022/12/23 10:05:58;;;;;;;129.88;55.95;;;;;;;12.86;53.25;100505.53;5050905;28;20112;-77
2022/12/23 10:08:35;;;;;;;113.32;55.58;;;;;;;12.89;53.15;100505.25;5050353;28;20119;-77
2022/12/23 10:11:17;;;;;;;113.88;56.55;;;;;;;12.89;53.14;100506.13;5050044;28;20154;-77
2022/12/23 10:13:51;;;;;;;100.78;50.97;;;;;;;12.93;53.26;100507.53;5050505;28;20171;-78
2022/12/23 10:16:24;;;;;;;100.47;50.78;;;;;;;12.94;52.64;100503.81;5050170;28;20385;-77
2022/12/23 10:19:01;;;;;;;99.30;49.83;;;;;;;12.96;52.36;100501.84;5050198;28;20507;-77
2022/12/23 10:21:43;;;;;;;83.80;44.05;;;;;;;12.84;51.99;100497.56;5050351;28;20048;-77
2022/12/23 10:24:23;;;;;;;92.80;45.38;;;;;;;12.79;52.12;100494.44;5050910;28;20468;-78
2022/12/23 10:26:51;;;;;;;79.60;44.38;;;;;;;12.72;52.27;100492.47;5050381;28;20037;-80
2022/12/23 10:29:20;;;;;;;82.10;37.80;;;;;;;12.68;51.93;100481.13;5050819;28;20024;-78
2022/12/23 10:31:55;;;;;;;90.90;36.25;;;;;;;12.74;51.60;100491.34;5050293;28;20037;-79
2022/12/23 10:34:35;;;;;;;77.38;27.55;;;;;;;12.77;50.87;100484.81;5064602;28;20052;-76
2022/12/23 10:37:27;;;;;;;46.33;24.88;;;;;;;12.79;50.06;100486.34;5049566;28;20510;-77
2022/12/23 10:40:08;;;;;;;52.10;26.48;;;;;;;12.77;50.28;100469.47;5049958;28;20100;-78
2022/12/23 10:42:46;;;;;;;65.07;26.40;;;;;;;12.87;49.95;100475.69;5049683;28;20150;-76
2022/12/23 10:45:25;;;;;;;81.63;30.70;;;;;;;12.95;50.15;100477.69;5049439;28;20027;-78
2022/12/23 10:48:03;;;;;;;55.28;25.20;;;;;;;13.00;49.74;100472.69;5055297;28;20025;-77
2022/12/23 10:50:45;;;;;;;64.85;28.15;;;;;;;12.84;49.93;100426.56;5059122;28;20064;-77
2022/12/23 10:53:19;;;;;;;74.20;27.67;;;;;;;13.30;49.58;100460.91;5055475;28;20029;-77
2022/12/23 10:55:47;;;;;;;50.78;24.95;;;;;;;13.22;49.19;100436.44;5050429;28;20057;-76
2022/12/23 10:58:16;;;;;;;52.00;24.45;;;;;;;13.63;48.55;100465.75;5050778;28;20017;-78
2022/12/23 11:00:49;;;;;;;52.47;21.98;;;;;;;13.78;48.34;100466.97;5048088;28;20075;-77
2022/12/23 11:03:17;;;;;;;52.38;24.92;;;;;;;13.89;47.72;100469.47;5050240;28;20025;-75
2022/12/23 11:05:44;;;;;;;61.70;28.48;;;;;;;13.83;47.50;100461.97;5049647;28;20643;-77
2022/12/23 11:08:10;;;;;;;53.97;30.45;;;;;;;13.81;47.46;100461.28;5049996;28;20112;-76
2022/12/23 11:10:36;;;;;;;68.90;30.00;;;;;;;13.82;47.44;100464.84;5050122;28;20065;-76
2022/12/23 11:13:01;;;;;;;82.80;30.80;;;;;;;13.78;47.65;100461.56;5049999;28;20028;-76
2022/12/23 11:15:34;;;;;;;94.20;33.25;;;;;;;13.79;47.55;100451.63;5049988;28;20033;-78
2022/12/23 11:18:03;;;;;;;73.50;33.25;;;;;;;13.92;47.37;100458.34;5049458;28;20036;-78
2022/12/23 11:20:29;;;;;;;63.75;30.58;;;;;;;13.73;47.43;100436.00;5049672;28;20048;-78
2022/12/23 11:22:58;;;;;;;59.08;32.05;;;;;;;13.85;47.56;100451.84;5063537;28;20045;-78
2022/12/23 11:25:37;;;;;;;84.22;35.38;;;;;;;13.90;47.90;100456.81;5051169;28;20021;-77
2022/12/23 11:28:09;;;;;;;78.40;34.63;;;;;;;13.92;47.93;100461.06;5049699;28;20036;-77
2022/12/23 11:30:45;;;;;;;75.32;34.10;;;;;;;13.79;47.81;100433.53;5049461;28;20025;-76
2022/12/23 11:33:50;;;;;;;96.20;34.33;;;;;;;13.94;47.95;100456.34;5049874;28;20036;-77
2022/12/23 11:36:22;;;;;;;72.25;25.67;;;;;;;13.89;47.31;100455.97;5027327;28;20053;-78
2022/12/23 11:38:51;;;;;;;67.72;22.17;;;;;;;13.72;46.89;100459.47;5027213;28;20038;-76
2022/12/23 11:41:28;;;;;;;51.85;21.80;;;;;;;13.62;47.18;100454.09;5026696;28;20080;-77
2022/12/23 11:44:17;;;;;;;41.00;21.75;;;;;;;13.62;47.17;100448.69;5027339;28;20034;-78
2022/12/23 11:46:42;;;;;;;48.70;20.08;;;;;;;13.57;47.38;100452.84;5027160;28;20042;-79
2022/12/23 11:49:22;;;;;;;52.70;23.27;;;;;;;13.51;48.09;100459.69;5027266;28;20794;-77
2022/12/23 11:52:07;;;;;;;59.88;26.02;;;;;;;13.52;48.42;100458.69;5036521;28;20033;-78
2022/12/23 11:54:33;;;;;;;65.55;28.52;;;;;;;13.48;48.56;100469.94;4977815;28;20605;-78
2022/12/23 11:57:02;;;;;;;58.67;26.00;;;;;;;13.44;48.84;100446.91;4968964;28;20280;-78
2022/12/23 11:59:42;;;;;;;53.45;25.25;;;;;;;13.45;49.19;100459.44;4968489;28;20087;-79
2022/12/23 12:02:12;;;;;;;63.20;27.73;;;;;;;13.30;48.96;100433.88;4968339;28;20037;-77
2022/12/23 12:04:40;;;;;;;59.67;27.23;;;;;;;13.42;49.57;100454.31;4968230;28;20123;-77
2022/12/23 12:07:13;;;;;;;67.10;29.00;;;;;;;13.24;49.42;100423.69;4968384;28;20035;-77
2022/12/23 12:09:42;;;;;;;71.70;31.55;;;;;;;13.46;49.69;100450.31;4967856;28;20043;-77
2022/12/23 12:12:19;;;;;;;69.63;31.90;;;;;;;13.26;50.05;100410.88;4976057;28;20042;-79